Mc Clure, Pennsylvania
Current Conditions -  °F | °C
As of 8:53 PM on Monday 22 Dec 2014 (Local Time) from KUNV Reporting Station
Haze Haze  
Wind Chill: 32°   Ceiling: 1300
Heat Index: 32°   Visibility: 2mi
Dew Point: 30°   Wind: 0mph
Humidity: 93%   Direction: NA
Pressure: 30.11"   Gusts: NA
Location:  40.7125°N, 77.3707°W
Report Text: KUNV 230153Z 00000KT 2SM BR OVC013 00/M01 A3011
Loading
Personal Weather Stations






























Interactive Weather Map New forecast layout! Learn more

10-Day Weather Forecast

Advertisements
Track Severe Weather on mobile